Sankuniki — JD2465 — position and weather

sailwx.info

Track history (hours):
 
Tides and Currents Weather Stations Pressure Air Temp Water Temp Dewpoint Dewpoint Depression Visibility Wind Speed Wind Dir Waves Ship Positions

Sankuniki

Last reported at 2017-Mar-10 22:29 UTC. Time now 2017-Mar-24 10:21 UTC.
Position N 34°51' E 139°39'.
Warning: this ship's position is 13 days out of date.

Length 71 m; draft 4.8 m.

Type: Cargo ship. MMSI: 431000269.

Date/timePositionNaut miles runAvg speedWind from/ knotsBaromVisibWave heightAir tempDewpointWater temp
2017-Mar-10 22:29N 34°51' E 139°39'  
2017-Mar-06 10:29N 34°53' E 139°47'1112.1
2017-Mar-06 09:33N 35°05' E 139°44'1212.4
2017-Mar-06 08:33N 35°17' E 139°45'1010.5
2017-Mar-06 07:33N 35°27' E 139°47'9 1.0
2017-Mar-05 22:11N 35°29' E 139°58'0 0.0
2017-Mar-05 16:21N 35°29' E 139°58'0 0.0
2017-Mar-05 05:09N 35°29' E 139°58'0 0.0
2017-Mar-05 04:32N 35°29' E 139°58'1010.6
2017-Mar-05 03:33N 35°25' E 139°47'1010.0
2017-Mar-05 02:32N 35°15' E 139°47'1111.7
2017-Mar-05 01:33N 35°03' E 139°44'  
Track history (hours):
 
Tides and Currents Weather Stations Pressure Air Temp Water Temp Dewpoint Dewpoint Depression Visibility Wind Speed Wind Dir Waves Ship Positions

Sankuniki

Last reported at 2017-Mar-10 22:29 UTC. Time now 2017-Mar-24 10:21 UTC.
Position N 34°51' E 139°39'.
Warning: this ship's position is 13 days out of date.

Length 71 m; draft 4.8 m.

Type: Cargo ship. MMSI: 431000269.

Date/timePositionNaut miles runAvg speedWind from/ knotsBaromVisibWave heightAir tempDewpointWater temp
2017-Mar-10 22:29N 34°51' E 139°39'  
2017-Mar-06 10:29N 34°53' E 139°47'1112.1
2017-Mar-06 09:33N 35°05' E 139°44'1212.4
2017-Mar-06 08:33N 35°17' E 139°45'1010.5
2017-Mar-06 07:33N 35°27' E 139°47'9 1.0
2017-Mar-05 22:11N 35°29' E 139°58'0 0.0
2017-Mar-05 16:21N 35°29' E 139°58'0 0.0
2017-Mar-05 05:09N 35°29' E 139°58'0 0.0
2017-Mar-05 04:32N 35°29' E 139°58'1010.6
2017-Mar-05 03:33N 35°25' E 139°47'1010.0
2017-Mar-05 02:32N 35°15' E 139°47'1111.7
2017-Mar-05 01:33N 35°03' E 139°44'  

Dump ship's entire track history